Time;durP1;ratioP1;P1;durP2;ratioP2;P2;SDS_P1;SDS_P2;PMS_P1;PMS_P2;Temp;Humidity;BMP_temperature;BMP_pressure;BME280_temperature;BME280_humidity;BME280_pressure;Samples;Min_cycle;Max_cycle;Signal;HPM_P1;HPM_P2
2022/07/11 00:01:06;;;;;;;0.63;0.63;;;14.90;65.50;;;14.96;50.95;95370.50;5001629;28;20702;-79
2022/07/11 00:03:33;;;;;;;0.60;0.60;;;14.90;65.50;;;14.96;51.22;95368.66;5010692;28;20211;-78
2022/07/11 00:06:01;;;;;;;0.70;0.70;;;14.90;65.50;;;14.99;51.02;95365.63;5011689;28;20228;-79
2022/07/11 00:08:28;;;;;;;0.70;0.70;;;14.90;65.90;;;15.03;51.23;95371.31;5013285;28;20737;-80
2022/07/11 00:10:55;;;;;;;0.55;0.55;;;14.90;65.60;;;15.05;51.15;95359.50;5011832;28;20237;-79
2022/07/11 00:13:23;;;;;;;0.60;0.60;;;14.90;65.60;;;15.09;50.78;95351.16;5011896;28;20200;-79
2022/07/11 00:15:50;;;;;;;0.45;0.45;;;15.00;65.60;;;15.11;50.66;95351.75;5011763;28;20224;-78
2022/07/11 00:18:17;;;;;;;0.60;0.60;;;15.00;65.60;;;15.13;50.55;95353.16;4997487;28;20197;-79
2022/07/11 00:20:44;;;;;;;0.60;0.60;;;15.00;65.60;;;15.16;50.85;95346.66;5014822;28;20315;-79
2022/07/11 00:23:12;;;;;;;0.60;0.60;;;15.00;65.60;;;15.16;50.82;95341.38;5012544;28;20196;-79
2022/07/11 00:25:39;;;;;;;0.57;0.57;;;15.00;65.70;;;15.18;51.02;95340.16;5014858;28;20727;-80
2022/07/11 00:28:06;;;;;;;0.60;0.60;;;15.00;65.60;;;15.19;51.13;95340.97;5014913;28;20617;-79
2022/07/11 00:30:33;;;;;;;0.70;0.70;;;15.10;65.70;;;15.20;51.03;95339.94;5030473;28;20281;-78
2022/07/11 00:33:01;;;;;;;0.60;0.60;;;15.10;65.70;;;15.12;50.58;95325.13;5011393;28;20650;-79
2022/07/11 00:35:29;;;;;;;0.57;0.57;;;15.10;65.70;;;15.18;51.67;95339.34;5011485;28;20316;-79
2022/07/11 00:37:56;;;;;;;0.70;0.70;;;15.10;65.80;;;15.14;51.31;95333.66;4995047;28;20205;-80
2022/07/11 00:40:23;;;;;;;0.70;0.70;;;15.10;65.70;;;15.12;50.98;95330.41;4995196;28;20660;-79
2022/07/11 00:42:50;;;;;;;0.60;0.60;;;15.10;65.80;;;15.11;50.99;95335.91;4992655;28;20208;-79
2022/07/11 00:45:18;;;;;;;0.60;0.60;;;15.10;65.70;;;15.09;51.33;95335.28;5011288;28;20224;-79
2022/07/11 00:47:45;;;;;;;0.70;0.70;;;15.10;65.90;;;15.06;51.54;95336.53;5010927;28;20291;-78
2022/07/11 00:50:14;;;;;;;0.50;0.50;;;15.00;65.90;;;15.04;51.87;95328.03;4994836;28;20629;-79
2022/07/11 00:52:41;;;;;;;0.60;0.60;;;15.00;66.00;;;15.01;51.66;95331.91;4995497;28;20558;-79
2022/07/11 00:55:10;;;;;;;0.70;0.70;;;15.00;65.90;;;15.01;51.48;95334.53;5011251;28;20270;-79
2022/07/11 00:57:38;;;;;;;0.60;0.60;;;15.00;66.00;;;14.99;51.48;95330.47;5030400;28;20580;-78
2022/07/11 01:00:06;;;;;;;0.60;0.60;;;15.00;65.90;;;15.01;51.55;95328.44;5031001;28;20192;-79
2022/07/11 01:02:33;;;;;;;0.60;0.60;;;14.90;65.90;;;15.01;51.67;95336.34;5007045;28;20568;-79
2022/07/11 01:05:00;;;;;;;0.70;0.70;;;15.00;66.10;;;14.99;51.91;95331.28;5011195;28;20195;-79
2022/07/11 01:07:30;;;;;;;0.60;0.60;;;15.00;66.10;;;15.00;51.67;95332.09;4995057;28;20657;-79
2022/07/11 01:09:57;;;;;;;0.60;0.60;;;15.10;66.40;;;15.01;51.50;95333.72;4994758;28;20574;-79
2022/07/11 01:12:25;;;;;;;0.60;0.60;;;15.00;66.10;;;15.01;51.35;95326.63;5015568;28;20234;-79
2022/07/11 01:14:59;;;;;;;0.50;0.50;;;15.00;66.20;;;15.01;51.70;95328.44;5032939;28;20204;-78
2022/07/11 01:17:26;;;;;;;0.60;0.60;;;14.90;66.10;;;15.02;51.73;95332.69;5032210;28;20290;-79
2022/07/11 01:19:53;;;;;;;0.43;0.43;;;15.00;66.20;;;15.00;51.72;95326.81;5034788;28;20207;-78
2022/07/11 01:22:25;;;;;;;0.60;0.60;;;14.90;66.10;;;15.00;51.37;95330.28;5013369;28;20209;-79
2022/07/11 01:24:52;;;;;;;0.70;0.70;;;14.90;66.30;;;15.00;51.19;95326.81;5014716;28;20209;-79
2022/07/11 01:27:19;;;;;;;0.60;0.60;;;14.90;66.10;;;14.99;51.27;95323.38;5031090;28;20193;-79
2022/07/11 01:29:47;;;;;;;0.60;0.60;;;15.00;66.20;;;15.01;51.44;95321.34;4998201;28;20201;-79
2022/07/11 01:32:18;;;;;;;0.70;0.70;;;14.90;66.20;;;15.00;51.61;95324.16;5032200;28;20583;-79
2022/07/11 01:34:46;;;;;;;0.60;0.60;;;14.90;66.10;;;14.95;51.94;95316.06;5034832;28;20197;-79
2022/07/11 01:37:13;;;;;;;0.75;0.75;;;14.90;66.20;;;14.96;51.74;95328.25;5010910;28;20703;-79
2022/07/11 01:39:41;;;;;;;0.50;0.50;;;14.90;66.30;;;14.89;51.46;95323.81;5013572;28;20200;-80
2022/07/11 01:42:08;;;;;;;0.60;0.60;;;14.80;66.30;;;14.87;51.68;95315.28;5030742;28;20239;-79
2022/07/11 01:44:35;;;;;;;0.40;0.40;;;14.90;66.30;;;14.87;51.91;95317.13;5031250;28;20603;-79
2022/07/11 01:47:02;;;;;;;0.60;0.60;;;14.80;66.30;;;14.82;52.25;95316.94;5017315;28;20232;-78
2022/07/11 01:49:29;;;;;;;0.60;0.60;;;14.80;66.40;;;14.79;51.98;95312.84;5017581;28;20572;-79
2022/07/11 01:51:57;;;;;;;0.80;0.80;;;14.70;66.30;;;14.74;52.16;95307.38;5013167;28;20311;-78
2022/07/11 01:54:24;;;;;;;0.55;0.55;;;14.70;66.50;;;14.69;52.26;95310.66;5014442;28;20215;-79
2022/07/11 01:56:51;;;;;;;0.60;0.60;;;14.60;66.30;;;14.64;52.66;95301.72;5014499;28;20282;-79
2022/07/11 01:59:18;;;;;;;0.70;0.70;;;14.60;66.50;;;14.58;52.68;95306.00;5014464;28;20647;-79
2022/07/11 02:01:45;;;;;;;0.63;0.63;;;14.60;66.60;;;14.53;52.80;95311.88;4996755;28;20652;-78
2022/07/11 02:04:12;;;;;;;0.60;0.60;;;14.50;66.70;;;14.49;52.24;95308.03;5022150;28;20597;-79
2022/07/11 02:06:39;;;;;;;0.70;0.70;;;14.50;66.60;;;14.45;52.43;95306.00;5034104;28;20230;-79
2022/07/11 02:09:06;;;;;;;0.50;0.50;;;14.40;66.60;;;14.38;52.58;95304.19;5026075;28;20258;-79
2022/07/11 02:11:34;;;;;;;0.60;0.60;;;14.50;66.90;;;14.33;52.58;95305.81;5013986;28;20224;-79
2022/07/11 02:14:02;;;;;;;0.80;0.80;;;14.30;66.70;;;14.27;53.17;95314.56;4997832;28;20275;-79
2022/07/11 02:16:29;;;;;;;0.60;0.60;;;14.30;67.00;;;14.24;52.82;95311.34;5031630;28;20209;-78
2022/07/11 02:18:56;;;;;;;0.60;0.60;;;14.20;66.90;;;14.18;52.88;95311.31;5014860;28;20464;-78
2022/07/11 02:21:24;;;;;;;0.70;0.70;;;14.20;67.10;;;14.14;52.74;95310.94;5032491;28;20231;-79
2022/07/11 02:23:51;;;;;;;0.60;0.60;;;14.20;67.10;;;14.08;53.26;95307.25;5032981;28;20199;-79
2022/07/11 02:26:18;;;;;;;0.60;0.60;;;14.10;67.10;;;14.04;52.67;95315.81;5033530;28;20219;-79
2022/07/11 02:28:46;;;;;;;0.60;0.60;;;14.00;67.00;;;14.00;52.93;95310.13;5021655;28;20205;-79
2022/07/11 02:31:13;;;;;;;0.50;0.50;;;14.00;67.10;;;13.94;52.95;95316.22;4999035;28;20224;-79
2022/07/11 02:33:41;;;;;;;0.60;0.60;;;14.00;67.20;;;13.90;53.25;95309.72;5004730;28;20209;-79
2022/07/11 02:36:09;;;;;;;0.70;0.70;;;13.90;67.30;;;13.84;53.14;95319.25;5013872;28;20220;-78
2022/07/11 02:38:36;;;;;;;0.60;0.60;;;13.80;67.30;;;13.80;53.08;95323.28;5019404;28;20237;-79
2022/07/11 02:41:04;;;;;;;0.60;0.60;;;13.80;67.30;;;13.73;53.46;95318.03;5015504;28;20230;-78
2022/07/11 02:43:31;;;;;;;0.60;0.60;;;13.70;67.40;;;13.66;53.73;95324.28;5021385;28;20642;-79
2022/07/11 02:45:58;;;;;;;0.50;0.50;;;13.70;67.50;;;13.64;53.62;95321.06;5008108;28;20345;-79
2022/07/11 02:48:25;;;;;;;0.60;0.60;;;13.60;67.60;;;13.61;54.14;95324.91;5023465;28;20271;-79
2022/07/11 02:50:52;;;;;;;0.60;0.60;;;13.60;68.80;;;13.54;54.25;95330.16;4996779;28;20224;-78
2022/07/11 02:53:20;;;;;;;0.70;0.70;;;13.60;67.70;;;13.53;53.56;95325.09;5020955;28;20359;-78
2022/07/11 02:55:48;;;;;;;0.60;0.60;;;13.50;67.80;;;13.49;53.63;95327.31;5028961;28;20817;-78
2022/07/11 02:58:15;;;;;;;0.60;0.60;;;13.60;68.00;;;13.47;53.73;95324.06;5023257;28;20291;-79
2022/07/11 03:00:42;;;;;;;0.50;0.50;;;13.40;67.90;;;13.44;53.86;95319.19;5003459;28;20837;-79
2022/07/11 03:03:09;;;;;;;0.60;0.60;;;13.40;67.90;;;13.38;53.99;95333.97;5013129;28;20295;-78
2022/07/11 03:05:37;;;;;;;0.63;0.63;;;13.30;68.00;;;13.35;54.34;95326.41;5015686;28;20259;-79
2022/07/11 03:08:05;;;;;;;0.60;0.60;;;13.30;68.10;;;13.27;54.37;95324.78;5014332;28;20212;-79
2022/07/11 03:10:32;;;;;;;0.60;0.60;;;13.30;68.30;;;13.31;54.31;95333.13;5014349;28;20314;-79
2022/07/11 03:12:59;;;;;;;0.60;0.60;;;13.20;68.30;;;13.26;54.22;95325.78;5028301;28;20204;-79
2022/07/11 03:15:26;;;;;;;0.60;0.60;;;13.20;68.30;;;13.26;54.49;95338.16;4995996;28;20220;-79
2022/07/11 03:17:53;;;;;;;0.60;0.60;;;13.20;68.40;;;13.25;54.17;95339.16;4995876;28;20211;-78
2022/07/11 03:20:20;;;;;;;0.80;0.80;;;13.20;68.50;;;13.18;54.35;95322.53;5009723;28;20674;-79
2022/07/11 03:22:47;;;;;;;0.60;0.60;;;13.10;68.40;;;13.17;54.76;95336.72;5027354;28;20185;-78
2022/07/11 03:25:14;;;;;;;0.70;0.70;;;13.10;68.60;;;13.16;54.55;95333.28;5028510;28;20235;-79
2022/07/11 03:27:41;;;;;;;0.60;0.60;;;13.10;68.70;;;13.11;54.71;95331.22;5029689;28;20222;-79
2022/07/11 03:30:10;;;;;;;0.60;0.60;;;13.10;68.70;;;13.13;54.57;95334.47;5026648;28;20651;-79
2022/07/11 03:32:37;;;;;;;0.65;0.65;;;13.10;68.90;;;13.10;54.87;95336.69;5013759;28;20222;-80
2022/07/11 03:37:50;;;;;;;0.50;0.50;;;13.00;68.90;;;13.06;54.97;95338.91;5016378;28;20200;-79
2022/07/11 03:40:18;;;;;;;0.60;0.60;;;13.00;68.90;;;13.05;55.14;95339.09;5031582;28;20221;-79
2022/07/11 03:42:45;;;;;;;0.60;0.60;;;13.00;69.00;;;12.97;55.52;95333.00;5012264;28;20670;-79
2022/07/11 03:45:12;;;;;;;0.60;0.60;;;12.90;69.20;;;13.00;55.43;95344.97;5031008;28;20234;-79
2022/07/11 03:47:39;;;;;;;0.60;0.60;;;13.00;69.00;;;12.98;55.08;95337.25;5015549;28;20195;-79
2022/07/11 03:50:07;;;;;;;0.70;0.70;;;12.90;69.20;;;13.01;55.23;95337.88;5011062;28;20204;-79
2022/07/11 03:52:34;;;;;;;0.70;0.70;;;13.00;69.30;;;13.01;55.33;95340.50;4979623;28;20233;-79
2022/07/11 03:55:01;;;;;;;0.60;0.60;;;12.90;69.30;;;12.98;55.39;95331.16;4995759;28;20193;-79
2022/07/11 03:57:29;;;;;;;0.60;0.60;;;12.90;69.40;;;13.02;55.11;95335.03;4979081;28;20212;-79
2022/07/11 03:59:56;;;;;;;0.60;0.60;;;13.10;69.60;;;13.02;55.27;95335.03;4997477;28;20192;-78
2022/07/11 04:02:23;;;;;;;0.60;0.60;;;13.00;69.60;;;13.04;55.38;95343.56;5014403;28;20207;-79
2022/07/11 04:04:50;;;;;;;0.60;0.60;;;13.00;69.70;;;13.08;55.63;95341.34;4995532;28;20255;-79
2022/07/11 04:07:17;;;;;;;0.60;0.60;;;13.00;69.80;;;13.09;55.72;95340.34;5006212;28;20243;-79
2022/07/11 04:09:45;;;;;;;0.60;0.60;;;13.10;69.90;;;13.16;56.15;95337.72;5011726;28;20201;-79
2022/07/11 04:12:12;;;;;;;0.60;0.60;;;13.10;70.20;;;13.22;56.26;95336.91;5011329;28;20621;-79
2022/07/11 04:14:39;;;;;;;0.60;0.60;;;13.20;70.30;;;13.27;56.22;95345.06;4995805;28;20307;-79
2022/07/11 04:17:06;;;;;;;0.60;0.60;;;13.20;70.30;;;13.32;56.67;95334.75;4991527;28;20238;-78
2022/07/11 04:19:33;;;;;;;0.60;0.60;;;13.20;70.60;;;13.42;56.59;95339.66;4995238;28;20447;-79
2022/07/11 04:22:00;;;;;;;0.60;0.60;;;13.30;70.50;;;13.52;56.46;95336.63;4995511;28;20689;-78
2022/07/11 04:24:27;;;;;;;0.60;0.60;;;13.50;70.60;;;13.61;56.37;95340.72;5013425;28;20570;-78
2022/07/11 04:26:54;;;;;;;0.70;0.70;;;13.50;70.70;;;13.68;56.14;95341.53;4988891;28;20229;-79
2022/07/11 04:29:23;;;;;;;0.60;0.60;;;13.60;70.60;;;13.76;56.59;95343.19;5003073;28;20196;-78
2022/07/11 04:31:50;;;;;;;0.60;0.60;;;13.70;70.60;;;13.82;56.81;95342.38;4990384;28;20251;-79
2022/07/11 04:34:18;;;;;;;0.60;0.60;;;13.80;70.70;;;13.88;56.53;95346.84;5005923;28;20602;-79
2022/07/11 04:36:45;;;;;;;0.70;0.70;;;13.80;70.50;;;13.95;57.02;95346.81;4978255;28;20580;-79
2022/07/11 04:39:13;;;;;;;0.60;0.60;;;13.90;70.60;;;13.99;57.06;95348.06;5004206;28;20610;-79
2022/07/11 04:41:40;;;;;;;0.50;0.50;;;14.00;70.60;;;14.04;57.02;95353.53;5006034;28;20238;-80
2022/07/11 04:44:07;;;;;;;0.60;0.60;;;14.00;70.60;;;14.13;56.96;95354.13;4990306;28;20200;-79
2022/07/11 04:46:34;;;;;;;0.80;0.80;;;14.10;70.80;;;14.20;57.30;95351.50;4989244;28;20290;-78
2022/07/11 04:49:02;;;;;;;0.60;0.60;;;14.30;71.10;;;14.28;57.04;95348.69;4975834;28;20291;-79
2022/07/11 04:51:29;;;;;;;0.60;0.60;;;14.20;70.80;;;14.37;56.97;95351.91;4988015;28;20771;-79
2022/07/11 04:53:56;;;;;;;0.70;0.70;;;14.30;70.90;;;14.41;56.98;95345.19;5002127;28;20234;-79
2022/07/11 04:56:23;;;;;;;0.60;0.60;;;14.40;70.90;;;14.48;57.29;95343.38;5017062;28;20303;-79
2022/07/11 04:58:50;;;;;;;0.50;0.50;;;14.50;71.10;;;14.62;57.34;95346.78;5013854;28;20655;-79
2022/07/11 05:01:18;;;;;;;0.60;0.60;;;14.60;71.20;;;14.73;57.22;95353.28;4990037;28;20234;-79
2022/07/11 05:03:45;;;;;;;0.60;0.60;;;14.70;71.10;;;14.83;56.89;95345.78;4973555;28;20205;-79
2022/07/11 05:06:12;;;;;;;0.50;0.50;;;14.90;71.30;;;14.97;56.79;95343.88;5000230;28;20250;-80
2022/07/11 05:08:40;;;;;;;0.60;0.60;;;14.90;71.10;;;15.07;56.90;95354.00;4992222;28;20924;-80
2022/07/11 05:11:07;;;;;;;0.50;0.50;;;15.00;71.00;;;15.16;56.91;95358.03;4989301;28;20227;-79
2022/07/11 05:13:35;;;;;;;0.60;0.60;;;15.10;70.90;;;15.28;56.52;95362.66;4975750;28;20204;-80
2022/07/11 05:16:02;;;;;;;0.80;0.80;;;15.30;70.90;;;15.33;56.38;95358.38;4991036;28;20266;-79
2022/07/11 05:18:30;;;;;;;0.52;0.52;;;15.30;70.70;;;15.40;56.68;95360.19;5006070;28;20213;-79
2022/07/11 05:20:57;;;;;;;0.60;0.60;;;15.40;70.60;;;15.46;56.36;95368.06;4992182;28;20346;-80
2022/07/11 05:23:27;;;;;;;0.50;0.50;;;15.40;70.50;;;15.52;55.96;95369.06;5000134;28;20655;-79
2022/07/11 05:25:54;;;;;;;0.60;0.60;;;15.50;70.60;;;15.57;56.04;95371.88;4996171;28;20239;-79
2022/07/11 05:28:21;;;;;;;0.70;0.70;;;15.50;70.40;;;15.64;56.26;95369.22;4991952;28;20212;-79
2022/07/11 05:30:48;;;;;;;0.60;0.60;;;15.60;70.40;;;15.67;56.10;95361.66;5023418;28;20220;-80
2022/07/11 05:33:15;;;;;;;0.70;0.70;;;15.70;70.20;;;15.71;55.89;95370.00;5007341;28;20243;-79
2022/07/11 05:35:42;;;;;;;0.60;0.60;;;15.80;70.20;;;15.76;55.99;95375.44;5001453;28;20220;-79
2022/07/11 05:38:09;;;;;;;0.60;0.60;;;15.80;70.10;;;15.81;56.19;95380.09;5001277;28;20267;-79
2022/07/11 05:40:36;;;;;;;0.60;0.60;;;15.90;70.10;;;15.88;56.06;95383.56;5005797;28;20239;-78
2022/07/11 05:43:04;;;;;;;0.60;0.60;;;15.90;70.10;;;15.94;55.81;95382.69;4969086;28;20204;-78
2022/07/11 05:45:31;;;;;;;0.80;0.80;;;16.00;70.10;;;16.00;55.81;95375.72;5011732;28;20232;-80
2022/07/11 05:47:59;;;;;;;0.57;0.57;;;16.00;70.00;;;16.08;55.62;95377.31;4990697;28;20295;-79
2022/07/11 05:50:26;;;;;;;0.52;0.52;;;16.10;70.10;;;16.13;55.60;95380.91;5004986;28;20236;-81
2022/07/11 05:52:57;;;;;;;0.50;0.50;;;16.20;69.90;;;16.16;55.38;95383.16;4990544;28;20239;-78
2022/07/11 05:55:24;;;;;;;0.50;0.50;;;16.20;70.00;;;16.22;55.33;95378.84;4986908;28;20238;-80
2022/07/11 05:57:51;;;;;;;0.60;0.60;;;16.20;69.70;;;16.22;55.34;95378.84;4992103;28;20204;-80
2022/07/11 06:00:18;;;;;;;0.50;0.50;;;16.40;69.60;;;16.25;55.51;95381.03;5008894;28;20223;-79
2022/07/11 06:02:47;;;;;;;0.60;0.60;;;16.30;69.60;;;16.30;55.15;95388.34;5006458;28;20222;-79
2022/07/11 06:05:14;;;;;;;0.70;0.70;;;16.40;69.60;;;16.33;55.39;95387.88;5007755;28;20310;-79
2022/07/11 06:10:29;;;;;;;0.40;0.40;;;16.50;69.60;;;16.43;54.95;95400.63;5004928;28;20303;-80
2022/07/11 06:12:57;;;;;;;0.60;0.60;;;16.50;69.30;;;16.43;55.17;95390.88;4998386;28;20709;-79
2022/07/11 06:15:25;;;;;;;0.50;0.50;;;16.60;69.40;;;16.50;55.10;95398.75;4997115;28;20235;-79
2022/07/11 06:17:52;;;;;;;0.50;0.50;;;16.60;69.50;;;16.53;54.73;95390.38;5011725;28;20201;-79
2022/07/11 06:20:19;;;;;;;0.52;0.52;;;16.60;69.40;;;16.53;54.88;95377.16;5004386;28;20859;-80
2022/07/11 06:22:47;;;;;;;0.40;0.40;;;16.60;69.40;;;16.66;54.82;95381.50;4983285;28;20250;-80
2022/07/11 06:25:14;;;;;;;0.50;0.50;;;16.70;69.60;;;16.77;55.28;95393.22;5005471;28;20717;-80
2022/07/11 06:27:41;;;;;;;0.50;0.50;;;16.70;69.60;;;16.88;55.26;95387.22;5009168;28;20215;-79
2022/07/11 06:30:08;;;;;;;0.50;0.50;;;16.80;69.70;;;16.95;55.08;95384.50;4992277;28;20251;-79
2022/07/11 06:32:35;;;;;;;0.50;0.50;;;16.90;69.50;;;17.04;54.61;95387.66;4991985;28;20228;-79
2022/07/11 06:35:02;;;;;;;0.55;0.55;;;17.00;69.40;;;17.09;54.60;95393.94;5012433;28;20658;-79
2022/07/11 06:37:30;;;;;;;0.60;0.60;;;17.10;69.20;;;17.16;54.21;95395.69;5016869;28;20188;-81
2022/07/11 06:39:57;;;;;;;0.50;0.50;;;17.20;69.30;;;17.17;54.12;95384.06;4991183;28;20718;-79
2022/07/11 06:42:24;;;;;;;0.50;0.50;;;17.30;69.00;;;17.25;54.45;95392.53;4995304;28;20278;-79
2022/07/11 06:44:55;;;;;;;0.50;0.50;;;17.30;69.10;;;17.34;54.62;95392.25;4994591;28;20220;-79
2022/07/11 06:47:22;;;;;;;0.40;0.40;;;17.40;69.00;;;17.42;54.04;95384.00;4995598;28;20200;-79
2022/07/11 06:49:49;;;;;;;0.50;0.50;;;17.50;69.00;;;17.50;53.96;95386.31;4993449;28;20659;-79
2022/07/11 06:52:16;;;;;;;0.50;0.50;;;17.50;69.00;;;17.60;54.17;95391.91;5002613;28;20224;-80
2022/07/11 06:54:43;;;;;;;0.50;0.50;;;17.70;69.00;;;17.68;54.20;95387.34;5029398;28;20644;-79
2022/07/11 06:57:10;;;;;;;0.50;0.50;;;17.70;68.90;;;17.72;53.85;95391.97;5024432;28;20590;-81
2022/07/11 06:59:38;;;;;;;0.50;0.50;;;17.80;68.60;;;17.74;53.67;95387.22;4999890;28;20212;-80
2022/07/11 07:02:06;;;;;;;0.50;0.50;;;17.80;68.50;;;17.74;53.73;95391.72;5003576;28;20229;-79
2022/07/11 07:04:34;;;;;;;0.50;0.50;;;17.80;68.20;;;17.62;53.54;95385.56;4980708;28;20200;-80
2022/07/11 07:07:02;;;;;;;0.50;0.50;;;17.80;68.00;;;17.53;52.97;95382.44;4996472;28;20263;-79
2022/07/11 07:09:29;;;;;;;0.60;0.60;;;17.80;67.70;;;17.47;53.23;95391.25;4980447;28;20644;-81
2022/07/11 07:11:57;;;;;;;0.50;0.50;;;17.70;67.90;;;17.40;53.48;95396.66;5004307;28;20228;-80
2022/07/11 07:14:25;;;;;;;0.50;0.50;;;17.60;68.10;;;17.29;53.94;95384.94;5017493;28;20275;-80
2022/07/11 07:16:52;;;;;;;0.50;0.50;;;17.60;68.20;;;17.30;53.74;95391.88;5015224;28;20263;-80
2022/07/11 07:19:20;;;;;;;0.50;0.50;;;17.60;68.20;;;17.31;54.10;95388.19;5015759;28;20211;-80
2022/07/11 07:21:48;;;;;;;0.50;0.50;;;17.50;68.80;;;17.35;54.67;95381.41;5015614;28;20311;-80
2022/07/11 07:24:15;;;;;;;0.40;0.40;;;17.50;68.90;;;17.43;54.42;95378.47;4995531;28;20590;-80
2022/07/11 07:26:44;;;;;;;0.50;0.50;;;17.50;68.60;;;17.53;54.28;95380.56;5001443;28;20235;-79
2022/07/11 07:29:12;;;;;;;0.50;0.50;;;17.60;68.90;;;17.65;54.29;95385.94;4995233;28;20549;-78
2022/07/11 07:31:40;;;;;;;0.50;0.50;;;17.70;69.40;;;17.87;54.80;95388.91;4981253;28;20244;-79
2022/07/11 07:34:10;;;;;;;0.50;0.50;;;17.80;69.50;;;18.06;54.30;95380.91;4975351;28;20274;-80
2022/07/11 07:36:37;;;;;;;0.50;0.50;;;18.00;70.60;;;18.28;53.62;95372.41;4990216;28;20773;-79
2022/07/11 07:39:05;;;;;;;0.52;0.52;;;18.20;68.80;;;18.50;53.33;95375.31;5018751;28;20275;-80
2022/07/11 07:41:32;;;;;;;0.50;0.50;;;18.40;69.10;;;18.67;53.00;95370.91;4996791;28;20442;-80
2022/07/11 07:43:59;;;;;;;0.47;0.47;;;18.60;68.20;;;18.89;53.18;95372.97;4989540;28;20339;-79
2022/07/11 07:46:26;;;;;;;0.40;0.40;;;18.80;68.60;;;19.11;53.36;95375.06;4988488;28;20231;-79
2022/07/11 07:48:53;;;;;;;0.43;0.43;;;19.00;68.50;;;19.30;52.67;95375.75;5001519;28;20216;-80
2022/07/11 07:51:21;;;;;;;0.47;0.47;;;19.20;68.00;;;19.47;51.91;95381.09;4994001;28;20590;-80
2022/07/11 07:53:49;;;;;;;0.50;0.50;;;19.40;67.50;;;19.61;51.75;95368.34;4989862;28;20256;-79
2022/07/11 07:56:23;;;;;;;0.40;0.40;;;19.60;67.50;;;19.82;51.54;95361.53;4994358;28;20215;-80
2022/07/11 07:58:53;;;;;;;0.40;0.40;;;19.80;67.60;;;20.05;51.80;95368.63;4990394;28;20199;-79
2022/07/11 08:01:35;;;;;;;0.40;0.40;;;20.00;67.30;;;20.20;49.92;95370.75;4966408;28;20227;-80
2022/07/11 08:04:07;;;;;;;0.40;0.40;;;20.20;66.20;;;20.28;49.92;95367.66;5000951;28;20193;-79
2022/07/11 08:06:36;;;;;;;0.40;0.40;;;20.30;65.70;;;20.30;49.88;95375.44;4978775;28;20322;-80
2022/07/11 08:09:05;;;;;;;0.40;0.40;;;20.40;65.50;;;20.30;49.08;95376.22;4974714;28;20204;-80
2022/07/11 08:11:33;;;;;;;0.40;0.40;;;20.50;64.90;;;20.25;48.95;95373.50;4970788;28;20231;-81
2022/07/11 08:14:03;;;;;;;0.40;0.40;;;20.50;64.70;;;20.22;49.20;95379.28;4982174;28;20387;-80
2022/07/11 08:16:31;;;;;;;0.40;0.40;;;20.40;64.90;;;20.22;49.92;95376.63;4996891;28;20221;-80
2022/07/11 08:19:03;;;;;;;0.40;0.40;;;20.40;64.80;;;20.21;48.73;95367.00;4993288;28;20373;-80
2022/07/11 08:21:32;;;;;;;0.40;0.40;;;20.50;64.80;;;20.22;49.47;95365.97;4977384;28;20229;-80
2022/07/11 08:23:59;;;;;;;0.40;0.40;;;20.40;64.60;;;20.22;49.20;95363.31;4991636;28;20211;-80
2022/07/11 08:26:27;;;;;;;0.45;0.45;;;20.40;64.70;;;20.24;49.31;95361.22;4979114;28;20236;-80
2022/07/11 08:29:04;;;;;;;0.50;0.50;;;20.40;64.80;;;20.19;48.19;95366.47;4994993;28;20682;-81
2022/07/11 08:31:32;;;;;;;0.40;0.40;;;20.40;63.80;;;20.09;46.54;95363.63;4973747;28;20278;-80
2022/07/11 08:34:00;;;;;;;0.40;0.40;;;20.40;63.20;;;20.00;46.69;95364.00;4988617;28;20228;-78
2022/07/11 08:36:29;;;;;;;0.40;0.40;;;20.30;63.20;;;19.96;47.03;95352.22;4987036;28;20235;-78
2022/07/11 08:38:58;;;;;;;0.50;0.50;;;20.30;63.70;;;19.94;46.92;95354.31;4985558;28;20319;-79
2022/07/11 08:41:25;;;;;;;0.30;0.30;;;20.20;63.20;;;19.97;47.41;95353.06;4994365;28;20687;-78
2022/07/11 08:43:53;;;;;;;0.47;0.47;;;20.20;63.60;;;20.03;47.67;95348.59;4977136;28;20225;-79
2022/07/11 08:46:21;;;;;;;0.60;0.60;;;20.20;63.70;;;20.09;47.85;95351.13;4993950;28;20343;-79
2022/07/11 08:48:50;;;;;;;0.40;0.40;;;20.30;63.80;;;20.15;48.34;95362.66;4982702;28;20204;-80
2022/07/11 08:51:17;;;;;;;0.50;0.50;;;20.20;63.60;;;20.22;48.74;95359.84;4982599;28;20212;-79
2022/07/11 08:53:44;;;;;;;0.40;0.40;;;20.30;64.40;;;20.29;48.42;95349.84;5004776;28;20225;-78
2022/07/11 08:56:20;;;;;;;0.40;0.40;;;20.30;63.70;;;20.38;47.91;95352.91;4980017;28;20252;-79
2022/07/11 08:58:49;;;;;;;0.40;0.40;;;20.40;63.80;;;20.44;47.76;95352.72;4994483;28;20287;-80
2022/07/11 09:01:34;;;;;;;0.40;0.40;;;20.50;63.90;;;20.52;47.95;95353.38;4982727;28;20315;-78
2022/07/11 09:04:08;;;;;;;0.40;0.40;;;20.50;64.80;;;20.58;46.58;95355.88;5005185;28;20228;-79
2022/07/11 09:06:36;;;;;;;0.40;0.40;;;20.60;63.30;;;20.62;45.79;95356.19;5000840;28;20239;-79
2022/07/11 09:09:03;;;;;;;0.40;0.40;;;20.60;62.40;;;20.69;46.58;95351.50;5022690;28;20205;-79
2022/07/11 09:11:53;;;;;;;0.40;0.40;;;20.70;63.70;;;20.84;46.60;95355.47;5030760;28;20318;-79
2022/07/11 09:14:26;;;;;;;0.30;0.30;;;20.80;62.90;;;20.99;46.71;95346.88;4995389;28;20322;-79
2022/07/11 09:17:02;;;;;;;0.38;0.38;;;20.90;62.80;;;21.10;44.75;95352.09;5010951;28;20217;-80
2022/07/11 09:19:32;;;;;;;0.40;0.40;;;21.00;61.50;;;21.15;43.70;95334.53;5013715;28;20282;-80
2022/07/11 09:25:19;;;;;;;0.65;0.65;;;21.20;62.00;;;21.40;44.98;95348.16;4997278;28;20210;-80
2022/07/11 09:28:06;;;;;;;0.40;0.40;;;21.40;61.70;;;21.37;44.81;95351.34;4985180;28;20230;-80
2022/07/11 09:30:39;;;;;;;0.40;0.40;;;21.40;61.40;;;21.28;44.03;95356.28;5000492;28;20359;-79
2022/07/11 09:33:09;;;;;;;0.32;0.32;;;21.40;60.70;;;21.19;44.88;95348.97;5001584;28;20238;-80
2022/07/11 09:35:45;;;;;;;0.40;0.40;;;21.40;61.20;;;21.15;45.10;95346.00;5018464;28;20321;-81
2022/07/11 09:38:17;;;;;;;0.38;0.38;;;21.40;61.90;;;21.26;45.97;95346.94;5029197;28;20212;-80
2022/07/11 09:40:47;;;;;;;0.30;0.30;;;21.30;62.20;;;21.39;45.58;95338.53;5032063;28;20239;-79
2022/07/11 09:43:24;;;;;;;0.35;0.35;;;21.40;61.90;;;21.57;45.61;95344.66;5027934;28;20258;-80
2022/07/11 09:45:51;;;;;;;0.30;0.30;;;21.50;62.00;;;21.69;42.97;95339.97;5034806;28;20563;-81
2022/07/11 09:48:18;;;;;;;0.40;0.40;;;21.60;60.20;;;21.73;42.44;95343.75;5034017;28;20313;-80
2022/07/11 09:51:00;;;;;;;0.30;0.30;;;21.70;59.90;;;21.73;42.48;95341.06;5017628;28;20705;-80
2022/07/11 09:53:27;;;;;;;0.30;0.30;;;21.80;60.00;;;21.74;42.73;95339.22;5013433;28;20233;-79
2022/07/11 09:55:54;;;;;;;0.30;0.30;;;21.80;60.10;;;21.83;43.57;95337.69;5015246;28;20216;-80
2022/07/11 09:58:29;;;;;;;0.40;0.40;;;21.90;60.30;;;21.98;43.66;95337.03;5033328;28;20207;-79
2022/07/11 10:00:56;;;;;;;0.38;0.38;;;22.00;60.60;;;22.14;44.23;95335.31;5017001;28;20331;-79
2022/07/11 10:03:25;;;;;;;0.30;0.30;;;22.10;61.30;;;22.33;43.97;95345.59;5027392;28;20206;-78
2022/07/11 10:06:12;;;;;;;0.40;0.40;;;22.30;60.90;;;22.48;42.37;95340.38;5012888;28;20232;-80
2022/07/11 10:08:40;;;;;;;0.30;0.30;;;22.40;59.90;;;22.62;42.39;95339.94;5016438;28;20199;-80
2022/07/11 10:11:08;;;;;;;0.40;0.40;;;22.60;60.00;;;22.78;42.60;95348.88;5029345;28;20601;-80
2022/07/11 10:13:36;;;;;;;0.30;0.30;;;22.70;60.10;;;22.81;40.94;95349.19;5030840;28;20222;-80
2022/07/11 10:16:20;;;;;;;0.45;0.45;;;22.80;58.50;;;22.72;41.11;95353.41;5014258;28;20291;-78
2022/07/11 10:19:26;;;;;;;0.32;0.32;;;22.80;58.00;;;22.59;41.44;95341.25;5006850;28;20214;-79
2022/07/11 10:22:31;;;;;;;0.40;0.40;;;22.80;58.20;;;22.53;42.13;95340.44;5022066;28;20229;-79
2022/07/11 10:25:19;;;;;;;0.40;0.40;;;22.80;59.40;;;22.49;41.88;95333.97;4999742;28;20718;-79
2022/07/11 10:28:16;;;;;;;0.40;0.40;;;22.80;58.40;;;22.51;41.38;95336.41;5021144;28;20602;-79
2022/07/11 10:30:49;;;;;;;0.25;0.25;;;22.70;59.20;;;22.61;42.12;95339.16;5021381;28;20748;-80
2022/07/11 10:33:19;;;;;;;0.30;0.30;;;22.80;59.30;;;22.76;41.41;95330.41;5003807;28;20227;-78
2022/07/11 10:35:53;;;;;;;0.30;0.30;;;22.80;58.40;;;22.94;42.28;95329.16;5005256;28;20216;-79